Aviation Digital Data Service (ADDS)

Output produced by METARs form (2128 UTC 24 February 2018)
found at http://aviationweather.gov/adds/metars/
 
KLEB 241720Z 2418/2518 31010KT P6SM BKN090 
     FM250500 00000KT P6SM FEW250 
     FM251100 11012G20KT 1SM -SN OVC090 
     FM251600 12014G22KT 2SM -RA BR OVC015